sensor_id;sensor_type;location;lat;lon;timestamp;P1;durP1;ratioP1;P2;durP2;ratioP2
56537;SDS011;42435;53.292;6.000;2023-07-31T00:00:13;8.95;;;2.30;;
56537;SDS011;42435;53.292;6.000;2023-07-31T00:02:39;6.78;;;2.58;;
56537;SDS011;42435;53.292;6.000;2023-07-31T00:05:05;10.50;;;3.42;;
56537;SDS011;42435;53.292;6.000;2023-07-31T00:07:31;14.13;;;2.70;;
56537;SDS011;42435;53.292;6.000;2023-07-31T00:09:57;7.97;;;2.33;;
56537;SDS011;42435;53.292;6.000;2023-07-31T00:12:23;11.27;;;2.78;;
56537;SDS011;42435;53.292;6.000;2023-07-31T00:14:48;10.32;;;2.40;;
56537;SDS011;42435;53.292;6.000;2023-07-31T00:17:14;5.50;;;2.35;;
56537;SDS011;42435;53.292;6.000;2023-07-31T00:19:42;10.35;;;2.70;;
56537;SDS011;42435;53.292;6.000;2023-07-31T00:22:07;7.22;;;2.75;;
56537;SDS011;42435;53.292;6.000;2023-07-31T00:24:33;9.13;;;2.40;;
56537;SDS011;42435;53.292;6.000;2023-07-31T00:26:58;7.80;;;2.72;;
56537;SDS011;42435;53.292;6.000;2023-07-31T00:29:24;6.28;;;2.22;;
56537;SDS011;42435;53.292;6.000;2023-07-31T00:31:49;5.03;;;2.33;;
56537;SDS011;42435;53.292;6.000;2023-07-31T00:34:15;7.53;;;2.35;;
56537;SDS011;42435;53.292;6.000;2023-07-31T00:36:40;8.45;;;2.60;;
56537;SDS011;42435;53.292;6.000;2023-07-31T00:39:06;5.43;;;2.10;;
56537;SDS011;42435;53.292;6.000;2023-07-31T00:41:31;9.35;;;2.58;;
56537;SDS011;42435;53.292;6.000;2023-07-31T00:43:57;8.13;;;2.30;;
56537;SDS011;42435;53.292;6.000;2023-07-31T00:46:22;8.30;;;2.53;;
56537;SDS011;42435;53.292;6.000;2023-07-31T00:48:48;9.32;;;2.60;;
56537;SDS011;42435;53.292;6.000;2023-07-31T00:51:14;9.38;;;2.30;;
56537;SDS011;42435;53.292;6.000;2023-07-31T00:53:40;7.60;;;2.47;;
56537;SDS011;42435;53.292;6.000;2023-07-31T00:56:07;9.20;;;2.40;;
56537;SDS011;42435;53.292;6.000;2023-07-31T00:58:33;9.90;;;2.28;;
56537;SDS011;42435;53.292;6.000;2023-07-31T01:00:59;8.82;;;2.55;;
56537;SDS011;42435;53.292;6.000;2023-07-31T01:03:25;10.73;;;2.80;;
56537;SDS011;42435;53.292;6.000;2023-07-31T01:08:46;6.32;;;1.98;;
56537;SDS011;42435;53.292;6.000;2023-07-31T01:11:29;7.13;;;2.05;;
56537;SDS011;42435;53.292;6.000;2023-07-31T01:13:58;6.20;;;2.10;;
56537;SDS011;42435;53.292;6.000;2023-07-31T01:16:27;8.38;;;2.00;;
56537;SDS011;42435;53.292;6.000;2023-07-31T01:18:52;7.43;;;1.90;;
56537;SDS011;42435;53.292;6.000;2023-07-31T01:24:28;6.60;;;2.30;;
56537;SDS011;42435;53.292;6.000;2023-07-31T01:27:10;7.13;;;2.33;;
56537;SDS011;42435;53.292;6.000;2023-07-31T01:29:43;6.85;;;2.67;;
56537;SDS011;42435;53.292;6.000;2023-07-31T01:32:17;5.13;;;1.80;;
56537;SDS011;42435;53.292;6.000;2023-07-31T01:34:44;11.80;;;2.30;;
56537;SDS011;42435;53.292;6.000;2023-07-31T01:37:11;7.95;;;2.33;;
56537;SDS011;42435;53.292;6.000;2023-07-31T01:39:37;7.88;;;2.15;;
56537;SDS011;42435;53.292;6.000;2023-07-31T01:42:02;9.02;;;2.53;;
56537;SDS011;42435;53.292;6.000;2023-07-31T01:44:28;6.75;;;2.42;;
56537;SDS011;42435;53.292;6.000;2023-07-31T01:46:53;8.90;;;2.42;;
56537;SDS011;42435;53.292;6.000;2023-07-31T01:49:19;7.43;;;2.20;;
56537;SDS011;42435;53.292;6.000;2023-07-31T01:51:45;8.85;;;1.98;;
56537;SDS011;42435;53.292;6.000;2023-07-31T01:54:10;8.98;;;2.63;;
56537;SDS011;42435;53.292;6.000;2023-07-31T01:56:36;9.27;;;2.35;;
56537;SDS011;42435;53.292;6.000;2023-07-31T01:59:01;8.88;;;2.45;;
56537;SDS011;42435;53.292;6.000;2023-07-31T02:01:27;5.63;;;2.33;;
56537;SDS011;42435;53.292;6.000;2023-07-31T02:03:53;9.10;;;2.63;;
56537;SDS011;42435;53.292;6.000;2023-07-31T02:06:19;9.55;;;2.67;;
56537;SDS011;42435;53.292;6.000;2023-07-31T02:08:44;4.65;;;1.90;;
56537;SDS011;42435;53.292;6.000;2023-07-31T02:11:10;7.32;;;2.40;;
56537;SDS011;42435;53.292;6.000;2023-07-31T02:13:35;7.43;;;2.30;;
56537;SDS011;42435;53.292;6.000;2023-07-31T02:16:01;7.40;;;2.55;;
56537;SDS011;42435;53.292;6.000;2023-07-31T02:18:27;8.38;;;2.42;;
56537;SDS011;42435;53.292;6.000;2023-07-31T02:20:53;6.13;;;2.25;;
56537;SDS011;42435;53.292;6.000;2023-07-31T02:23:18;8.45;;;2.45;;
56537;SDS011;42435;53.292;6.000;2023-07-31T02:25:44;6.07;;;2.35;;
56537;SDS011;42435;53.292;6.000;2023-07-31T02:28:10;8.30;;;2.15;;
56537;SDS011;42435;53.292;6.000;2023-07-31T02:30:36;8.98;;;2.40;;
56537;SDS011;42435;53.292;6.000;2023-07-31T02:33:02;8.27;;;2.33;;
56537;SDS011;42435;53.292;6.000;2023-07-31T02:35:28;7.20;;;2.95;;
56537;SDS011;42435;53.292;6.000;2023-07-31T02:37:53;8.52;;;2.38;;
56537;SDS011;42435;53.292;6.000;2023-07-31T02:40:19;6.95;;;2.10;;
56537;SDS011;42435;53.292;6.000;2023-07-31T02:42:44;5.65;;;2.08;;
56537;SDS011;42435;53.292;6.000;2023-07-31T02:45:10;8.00;;;2.38;;
56537;SDS011;42435;53.292;6.000;2023-07-31T02:47:36;7.68;;;3.00;;
56537;SDS011;42435;53.292;6.000;2023-07-31T02:50:02;6.75;;;2.20;;
56537;SDS011;42435;53.292;6.000;2023-07-31T02:52:28;9.98;;;2.30;;
56537;SDS011;42435;53.292;6.000;2023-07-31T02:54:54;5.13;;;1.90;;
56537;SDS011;42435;53.292;6.000;2023-07-31T02:57:19;6.60;;;2.20;;
56537;SDS011;42435;53.292;6.000;2023-07-31T02:59:45;3.58;;;1.90;;
56537;SDS011;42435;53.292;6.000;2023-07-31T03:02:10;8.45;;;1.73;;
56537;SDS011;42435;53.292;6.000;2023-07-31T03:04:37;5.63;;;1.85;;
56537;SDS011;42435;53.292;6.000;2023-07-31T03:07:02;5.00;;;2.17;;
56537;SDS011;42435;53.292;6.000;2023-07-31T03:09:28;7.22;;;2.17;;
56537;SDS011;42435;53.292;6.000;2023-07-31T03:11:54;5.43;;;2.10;;
56537;SDS011;42435;53.292;6.000;2023-07-31T03:14:19;6.45;;;2.50;;
56537;SDS011;42435;53.292;6.000;2023-07-31T03:16:45;6.75;;;2.38;;
56537;SDS011;42435;53.292;6.000;2023-07-31T03:19:10;7.50;;;2.58;;
56537;SDS011;42435;53.292;6.000;2023-07-31T03:21:36;5.07;;;2.38;;
56537;SDS011;42435;53.292;6.000;2023-07-31T03:24:01;6.50;;;2.40;;
56537;SDS011;42435;53.292;6.000;2023-07-31T03:26:27;9.23;;;2.70;;
56537;SDS011;42435;53.292;6.000;2023-07-31T03:28:54;7.65;;;2.38;;
56537;SDS011;42435;53.292;6.000;2023-07-31T03:31:20;7.03;;;2.42;;
56537;SDS011;42435;53.292;6.000;2023-07-31T03:33:45;5.43;;;2.60;;
56537;SDS011;42435;53.292;6.000;2023-07-31T03:36:11;5.43;;;2.42;;
56537;SDS011;42435;53.292;6.000;2023-07-31T03:38:36;4.65;;;2.50;;
56537;SDS011;42435;53.292;6.000;2023-07-31T03:41:02;5.57;;;1.95;;
56537;SDS011;42435;53.292;6.000;2023-07-31T03:43:28;3.80;;;1.83;;
56537;SDS011;42435;53.292;6.000;2023-07-31T03:45:54;3.85;;;1.83;;
56537;SDS011;42435;53.292;6.000;2023-07-31T03:48:19;4.13;;;1.95;;
56537;SDS011;42435;53.292;6.000;2023-07-31T03:50:45;5.78;;;1.90;;
56537;SDS011;42435;53.292;6.000;2023-07-31T03:53:10;4.55;;;1.60;;
56537;SDS011;42435;53.292;6.000;2023-07-31T03:55:36;2.47;;;1.83;;
56537;SDS011;42435;53.292;6.000;2023-07-31T03:58:02;3.58;;;1.85;;
56537;SDS011;42435;53.292;6.000;2023-07-31T04:00:28;3.80;;;1.55;;
56537;SDS011;42435;53.292;6.000;2023-07-31T04:02:53;2.40;;;1.30;;
56537;SDS011;42435;53.292;6.000;2023-07-31T04:05:19;2.00;;;1.17;;
56537;SDS011;42435;53.292;6.000;2023-07-31T04:07:44;1.67;;;1.33;;
56537;SDS011;42435;53.292;6.000;2023-07-31T04:10:10;2.55;;;1.40;;
56537;SDS011;42435;53.292;6.000;2023-07-31T04:12:35;1.48;;;1.10;;
56537;SDS011;42435;53.292;6.000;2023-07-31T04:15:01;1.75;;;1.27;;
56537;SDS011;42435;53.292;6.000;2023-07-31T04:17:27;3.58;;;1.05;;
56537;SDS011;42435;53.292;6.000;2023-07-31T04:19:52;2.20;;;1.13;;
56537;SDS011;42435;53.292;6.000;2023-07-31T04:22:18;1.80;;;0.88;;
56537;SDS011;42435;53.292;6.000;2023-07-31T04:24:43;1.33;;;0.63;;
56537;SDS011;42435;53.292;6.000;2023-07-31T04:27:09;1.60;;;0.70;;
56537;SDS011;42435;53.292;6.000;2023-07-31T04:29:34;1.33;;;0.90;;
56537;SDS011;42435;53.292;6.000;2023-07-31T04:32:00;1.90;;;1.00;;
56537;SDS011;42435;53.292;6.000;2023-07-31T04:34:26;0.90;;;0.73;;
56537;SDS011;42435;53.292;6.000;2023-07-31T04:36:51;0.95;;;0.85;;
56537;SDS011;42435;53.292;6.000;2023-07-31T04:39:17;1.20;;;1.00;;
56537;SDS011;42435;53.292;6.000;2023-07-31T04:41:42;2.63;;;1.40;;
56537;SDS011;42435;53.292;6.000;2023-07-31T04:44:08;1.50;;;0.88;;
56537;SDS011;42435;53.292;6.000;2023-07-31T04:46:33;3.08;;;1.45;;
56537;SDS011;42435;53.292;6.000;2023-07-31T04:49:00;2.47;;;1.10;;
56537;SDS011;42435;53.292;6.000;2023-07-31T04:51:25;3.75;;;1.85;;
56537;SDS011;42435;53.292;6.000;2023-07-31T04:53:51;3.08;;;1.70;;
56537;SDS011;42435;53.292;6.000;2023-07-31T04:56:16;5.40;;;2.05;;
56537;SDS011;42435;53.292;6.000;2023-07-31T04:58:42;4.68;;;1.98;;
56537;SDS011;42435;53.292;6.000;2023-07-31T05:01:08;5.13;;;2.42;;
56537;SDS011;42435;53.292;6.000;2023-07-31T05:03:33;4.65;;;2.30;;
56537;SDS011;42435;53.292;6.000;2023-07-31T05:05:59;5.15;;;3.05;;
56537;SDS011;42435;53.292;6.000;2023-07-31T05:08:24;8.63;;;3.05;;
56537;SDS011;42435;53.292;6.000;2023-07-31T05:10:50;9.35;;;3.53;;
56537;SDS011;42435;53.292;6.000;2023-07-31T05:13:15;10.60;;;3.80;;
56537;SDS011;42435;53.292;6.000;2023-07-31T05:15:41;11.27;;;5.10;;
56537;SDS011;42435;53.292;6.000;2023-07-31T05:18:07;15.73;;;5.15;;
56537;SDS011;42435;53.292;6.000;2023-07-31T05:20:32;11.77;;;4.57;;
56537;SDS011;42435;53.292;6.000;2023-07-31T05:22:58;16.13;;;4.78;;
56537;SDS011;42435;53.292;6.000;2023-07-31T05:25:23;14.07;;;4.93;;
56537;SDS011;42435;53.292;6.000;2023-07-31T05:27:49;11.90;;;5.60;;
56537;SDS011;42435;53.292;6.000;2023-07-31T05:30:14;11.82;;;4.72;;
56537;SDS011;42435;53.292;6.000;2023-07-31T05:32:40;14.65;;;4.50;;
56537;SDS011;42435;53.292;6.000;2023-07-31T05:35:06;10.00;;;4.22;;
56537;SDS011;42435;53.292;6.000;2023-07-31T05:37:31;12.70;;;4.35;;
56537;SDS011;42435;53.292;6.000;2023-07-31T05:39:57;11.48;;;3.78;;
56537;SDS011;42435;53.292;6.000;2023-07-31T05:42:23;11.80;;;4.22;;
56537;SDS011;42435;53.292;6.000;2023-07-31T05:44:48;14.32;;;4.80;;
56537;SDS011;42435;53.292;6.000;2023-07-31T05:47:14;10.68;;;4.47;;
56537;SDS011;42435;53.292;6.000;2023-07-31T05:49:40;16.25;;;4.75;;
56537;SDS011;42435;53.292;6.000;2023-07-31T05:52:05;14.65;;;5.03;;
56537;SDS011;42435;53.292;6.000;2023-07-31T05:54:31;15.40;;;4.20;;
56537;SDS011;42435;53.292;6.000;2023-07-31T05:56:57;16.38;;;5.15;;
56537;SDS011;42435;53.292;6.000;2023-07-31T05:59:23;12.88;;;4.93;;
56537;SDS011;42435;53.292;6.000;2023-07-31T06:01:48;17.70;;;5.38;;
56537;SDS011;42435;53.292;6.000;2023-07-31T06:04:14;14.75;;;5.35;;
56537;SDS011;42435;53.292;6.000;2023-07-31T06:06:40;17.27;;;5.55;;
56537;SDS011;42435;53.292;6.000;2023-07-31T06:09:05;14.57;;;5.13;;
56537;SDS011;42435;53.292;6.000;2023-07-31T06:11:32;19.08;;;5.50;;
56537;SDS011;42435;53.292;6.000;2023-07-31T06:13:57;15.50;;;5.68;;
56537;SDS011;42435;53.292;6.000;2023-07-31T06:16:23;14.40;;;5.38;;
56537;SDS011;42435;53.292;6.000;2023-07-31T06:18:48;15.50;;;4.78;;
56537;SDS011;42435;53.292;6.000;2023-07-31T06:21:14;13.98;;;4.20;;
56537;SDS011;42435;53.292;6.000;2023-07-31T06:23:40;12.50;;;4.05;;
56537;SDS011;42435;53.292;6.000;2023-07-31T06:26:05;9.50;;;3.40;;
56537;SDS011;42435;53.292;6.000;2023-07-31T06:28:31;12.85;;;3.55;;
56537;SDS011;42435;53.292;6.000;2023-07-31T06:30:57;11.38;;;3.65;;
56537;SDS011;42435;53.292;6.000;2023-07-31T06:33:23;8.80;;;3.55;;
56537;SDS011;42435;53.292;6.000;2023-07-31T06:35:49;8.43;;;2.85;;
56537;SDS011;42435;53.292;6.000;2023-07-31T06:38:15;9.07;;;3.15;;
56537;SDS011;42435;53.292;6.000;2023-07-31T06:40:41;9.25;;;3.00;;
56537;SDS011;42435;53.292;6.000;2023-07-31T06:43:06;11.77;;;3.10;;
56537;SDS011;42435;53.292;6.000;2023-07-31T06:45:35;8.10;;;2.90;;
56537;SDS011;42435;53.292;6.000;2023-07-31T06:48:01;7.30;;;2.53;;
56537;SDS011;42435;53.292;6.000;2023-07-31T06:50:28;12.10;;;2.85;;
56537;SDS011;42435;53.292;6.000;2023-07-31T06:52:53;5.65;;;2.80;;
56537;SDS011;42435;53.292;6.000;2023-07-31T06:55:20;7.55;;;2.78;;
56537;SDS011;42435;53.292;6.000;2023-07-31T06:57:47;8.50;;;3.17;;
56537;SDS011;42435;53.292;6.000;2023-07-31T07:00:14;7.72;;;2.90;;
56537;SDS011;42435;53.292;6.000;2023-07-31T07:02:40;8.25;;;3.70;;
56537;SDS011;42435;53.292;6.000;2023-07-31T07:05:06;9.88;;;3.95;;
56537;SDS011;42435;53.292;6.000;2023-07-31T07:07:33;7.63;;;3.08;;
56537;SDS011;42435;53.292;6.000;2023-07-31T07:09:58;7.88;;;3.38;;
56537;SDS011;42435;53.292;6.000;2023-07-31T07:12:30;9.80;;;3.90;;
56537;SDS011;42435;53.292;6.000;2023-07-31T07:14:57;10.15;;;3.88;;
56537;SDS011;42435;53.292;6.000;2023-07-31T07:17:23;9.65;;;3.90;;
56537;SDS011;42435;53.292;6.000;2023-07-31T07:19:49;13.20;;;3.97;;
56537;SDS011;42435;53.292;6.000;2023-07-31T07:22:14;10.70;;;3.63;;
56537;SDS011;42435;53.292;6.000;2023-07-31T07:24:40;8.25;;;3.40;;
56537;SDS011;42435;53.292;6.000;2023-07-31T07:27:06;6.78;;;3.00;;
56537;SDS011;42435;53.292;6.000;2023-07-31T07:29:33;7.88;;;2.80;;
56537;SDS011;42435;53.292;6.000;2023-07-31T07:31:59;6.97;;;2.28;;
56537;SDS011;42435;53.292;6.000;2023-07-31T07:34:27;6.95;;;2.58;;
56537;SDS011;42435;53.292;6.000;2023-07-31T07:36:53;7.75;;;2.80;;
56537;SDS011;42435;53.292;6.000;2023-07-31T07:39:19;7.43;;;2.55;;
56537;SDS011;42435;53.292;6.000;2023-07-31T07:41:45;3.78;;;1.83;;
56537;SDS011;42435;53.292;6.000;2023-07-31T07:44:11;9.45;;;2.28;;
56537;SDS011;42435;53.292;6.000;2023-07-31T07:46:40;4.72;;;1.60;;
56537;SDS011;42435;53.292;6.000;2023-07-31T07:49:05;3.75;;;1.55;;
56537;SDS011;42435;53.292;6.000;2023-07-31T07:51:31;2.88;;;1.13;;
56537;SDS011;42435;53.292;6.000;2023-07-31T07:53:58;4.28;;;1.70;;
56537;SDS011;42435;53.292;6.000;2023-07-31T07:56:25;2.97;;;1.00;;
56537;SDS011;42435;53.292;6.000;2023-07-31T07:58:51;2.00;;;1.00;;
56537;SDS011;42435;53.292;6.000;2023-07-31T08:01:16;4.00;;;1.30;;
56537;SDS011;42435;53.292;6.000;2023-07-31T08:03:42;3.38;;;1.30;;
56537;SDS011;42435;53.292;6.000;2023-07-31T08:06:08;1.85;;;0.90;;
56537;SDS011;42435;53.292;6.000;2023-07-31T08:08:34;1.88;;;0.80;;
56537;SDS011;42435;53.292;6.000;2023-07-31T08:11:00;2.13;;;0.60;;
56537;SDS011;42435;53.292;6.000;2023-07-31T08:13:26;1.58;;;0.50;;
56537;SDS011;42435;53.292;6.000;2023-07-31T08:15:52;0.90;;;0.50;;
56537;SDS011;42435;53.292;6.000;2023-07-31T08:18:18;1.27;;;0.50;;
56537;SDS011;42435;53.292;6.000;2023-07-31T08:20:44;1.17;;;0.60;;
56537;SDS011;42435;53.292;6.000;2023-07-31T08:23:10;1.83;;;0.70;;
56537;SDS011;42435;53.292;6.000;2023-07-31T08:25:35;1.85;;;0.52;;
56537;SDS011;42435;53.292;6.000;2023-07-31T08:28:02;0.90;;;0.45;;
56537;SDS011;42435;53.292;6.000;2023-07-31T08:30:28;2.53;;;0.65;;
56537;SDS011;42435;53.292;6.000;2023-07-31T08:32:53;1.70;;;0.80;;
56537;SDS011;42435;53.292;6.000;2023-07-31T08:35:19;2.83;;;0.88;;
56537;SDS011;42435;53.292;6.000;2023-07-31T08:37:45;2.60;;;0.88;;
56537;SDS011;42435;53.292;6.000;2023-07-31T08:40:10;1.50;;;0.80;;
56537;SDS011;42435;53.292;6.000;2023-07-31T08:42:45;4.32;;;0.88;;
56537;SDS011;42435;53.292;6.000;2023-07-31T08:45:16;3.13;;;0.98;;
56537;SDS011;42435;53.292;6.000;2023-07-31T08:47:44;3.65;;;1.13;;
56537;SDS011;42435;53.292;6.000;2023-07-31T08:50:15;1.85;;;0.73;;
56537;SDS011;42435;53.292;6.000;2023-07-31T08:52:42;1.55;;;0.57;;
56537;SDS011;42435;53.292;6.000;2023-07-31T08:55:08;4.25;;;0.60;;
56537;SDS011;42435;53.292;6.000;2023-07-31T08:57:36;1.13;;;0.60;;
56537;SDS011;42435;53.292;6.000;2023-07-31T09:00:04;1.83;;;0.60;;
56537;SDS011;42435;53.292;6.000;2023-07-31T09:02:37;2.70;;;0.90;;
56537;SDS011;42435;53.292;6.000;2023-07-31T09:05:16;2.08;;;0.65;;
56537;SDS011;42435;53.292;6.000;2023-07-31T09:07:42;1.45;;;0.40;;
56537;SDS011;42435;53.292;6.000;2023-07-31T09:10:13;2.15;;;0.80;;
56537;SDS011;42435;53.292;6.000;2023-07-31T09:12:39;2.80;;;1.10;;
56537;SDS011;42435;53.292;6.000;2023-07-31T09:15:05;4.82;;;1.08;;
56537;SDS011;42435;53.292;6.000;2023-07-31T09:17:35;2.97;;;1.25;;
56537;SDS011;42435;53.292;6.000;2023-07-31T09:20:18;5.93;;;1.65;;
56537;SDS011;42435;53.292;6.000;2023-07-31T09:22:46;5.22;;;1.40;;
56537;SDS011;42435;53.292;6.000;2023-07-31T09:25:22;6.82;;;2.20;;
56537;SDS011;42435;53.292;6.000;2023-07-31T09:28:00;5.72;;;2.42;;
56537;SDS011;42435;53.292;6.000;2023-07-31T09:30:27;7.45;;;2.00;;
56537;SDS011;42435;53.292;6.000;2023-07-31T09:33:00;13.48;;;2.17;;
56537;SDS011;42435;53.292;6.000;2023-07-31T09:35:28;5.18;;;1.83;;
56537;SDS011;42435;53.292;6.000;2023-07-31T09:37:57;4.55;;;1.73;;
56537;SDS011;42435;53.292;6.000;2023-07-31T09:40:34;6.10;;;1.80;;
56537;SDS011;42435;53.292;6.000;2023-07-31T09:43:03;5.18;;;1.58;;
56537;SDS011;42435;53.292;6.000;2023-07-31T09:45:30;3.92;;;1.50;;
56537;SDS011;42435;53.292;6.000;2023-07-31T09:47:59;3.13;;;1.50;;
56537;SDS011;42435;53.292;6.000;2023-07-31T09:50:25;1.88;;;1.08;;
56537;SDS011;42435;53.292;6.000;2023-07-31T09:52:51;2.53;;;0.98;;
56537;SDS011;42435;53.292;6.000;2023-07-31T09:55:17;3.05;;;1.17;;
56537;SDS011;42435;53.292;6.000;2023-07-31T09:57:45;1.85;;;0.77;;
56537;SDS011;42435;53.292;6.000;2023-07-31T10:00:12;1.45;;;0.70;;
56537;SDS011;42435;53.292;6.000;2023-07-31T10:02:38;1.88;;;0.70;;
56537;SDS011;42435;53.292;6.000;2023-07-31T10:05:05;2.53;;;0.80;;
56537;SDS011;42435;53.292;6.000;2023-07-31T10:07:34;1.00;;;0.70;;
56537;SDS011;42435;53.292;6.000;2023-07-31T10:10:03;1.88;;;0.80;;
56537;SDS011;42435;53.292;6.000;2023-07-31T10:12:30;2.33;;;0.70;;
56537;SDS011;42435;53.292;6.000;2023-07-31T10:14:59;1.35;;;0.57;;
56537;SDS011;42435;53.292;6.000;2023-07-31T10:17:25;2.13;;;0.70;;
56537;SDS011;42435;53.292;6.000;2023-07-31T10:19:51;1.60;;;0.50;;
56537;SDS011;42435;53.292;6.000;2023-07-31T10:22:18;1.42;;;0.80;;
56537;SDS011;42435;53.292;6.000;2023-07-31T10:24:45;1.35;;;0.68;;
56537;SDS011;42435;53.292;6.000;2023-07-31T10:27:14;2.80;;;1.38;;
56537;SDS011;42435;53.292;6.000;2023-07-31T10:29:39;3.80;;;0.82;;
56537;SDS011;42435;53.292;6.000;2023-07-31T10:32:08;0.70;;;0.70;;
56537;SDS011;42435;53.292;6.000;2023-07-31T10:34:35;1.30;;;0.73;;
56537;SDS011;42435;53.292;6.000;2023-07-31T10:37:19;1.27;;;0.80;;
56537;SDS011;42435;53.292;6.000;2023-07-31T10:48:00;2.47;;;1.10;;
56537;SDS011;42435;53.292;6.000;2023-07-31T10:50:27;2.85;;;0.90;;
56537;SDS011;42435;53.292;6.000;2023-07-31T10:52:55;4.53;;;1.60;;
56537;SDS011;42435;53.292;6.000;2023-07-31T10:55:41;1.92;;;1.20;;
56537;SDS011;42435;53.292;6.000;2023-07-31T10:58:12;4.30;;;1.10;;
56537;SDS011;42435;53.292;6.000;2023-07-31T11:00:39;3.38;;;0.73;;
56537;SDS011;42435;53.292;6.000;2023-07-31T11:03:10;2.08;;;1.10;;
56537;SDS011;42435;53.292;6.000;2023-07-31T11:05:42;2.60;;;1.23;;
56537;SDS011;42435;53.292;6.000;2023-07-31T11:08:26;2.92;;;1.30;;
56537;SDS011;42435;53.292;6.000;2023-07-31T11:13:28;4.53;;;1.92;;
56537;SDS011;42435;53.292;6.000;2023-07-31T11:15:53;4.65;;;2.05;;
56537;SDS011;42435;53.292;6.000;2023-07-31T11:18:19;4.70;;;1.90;;
56537;SDS011;42435;53.292;6.000;2023-07-31T11:20:45;6.75;;;2.20;;
56537;SDS011;42435;53.292;6.000;2023-07-31T11:23:10;4.28;;;2.70;;
56537;SDS011;42435;53.292;6.000;2023-07-31T11:25:39;6.90;;;2.65;;
56537;SDS011;42435;53.292;6.000;2023-07-31T11:28:11;5.90;;;2.78;;
56537;SDS011;42435;53.292;6.000;2023-07-31T11:30:40;7.93;;;2.60;;
56537;SDS011;42435;53.292;6.000;2023-07-31T11:33:07;8.70;;;2.65;;
56537;SDS011;42435;53.292;6.000;2023-07-31T11:35:35;4.07;;;2.30;;
56537;SDS011;42435;53.292;6.000;2023-07-31T11:38:06;5.32;;;1.67;;
56537;SDS011;42435;53.292;6.000;2023-07-31T11:40:40;2.22;;;1.52;;
56537;SDS011;42435;53.292;6.000;2023-07-31T11:43:07;3.50;;;1.80;;
56537;SDS011;42435;53.292;6.000;2023-07-31T11:45:33;3.55;;;1.58;;
56537;SDS011;42435;53.292;6.000;2023-07-31T11:48:00;3.10;;;1.85;;
56537;SDS011;42435;53.292;6.000;2023-07-31T11:50:26;5.43;;;2.90;;
56537;SDS011;42435;53.292;6.000;2023-07-31T11:52:59;6.57;;;2.20;;
56537;SDS011;42435;53.292;6.000;2023-07-31T11:55:28;6.15;;;2.17;;
56537;SDS011;42435;53.292;6.000;2023-07-31T11:57:56;6.05;;;2.08;;
56537;SDS011;42435;53.292;6.000;2023-07-31T12:00:22;3.95;;;1.60;;
56537;SDS011;42435;53.292;6.000;2023-07-31T12:02:49;2.42;;;1.35;;
56537;SDS011;42435;53.292;6.000;2023-07-31T12:05:15;4.40;;;1.40;;
56537;SDS011;42435;53.292;6.000;2023-07-31T12:07:49;3.50;;;1.00;;
56537;SDS011;42435;53.292;6.000;2023-07-31T12:10:34;1.10;;;1.00;;
56537;SDS011;42435;53.292;6.000;2023-07-31T12:13:01;3.13;;;1.10;;
56537;SDS011;42435;53.292;6.000;2023-07-31T12:15:41;4.18;;;1.50;;
56537;SDS011;42435;53.292;6.000;2023-07-31T12:18:09;3.30;;;1.23;;
56537;SDS011;42435;53.292;6.000;2023-07-31T12:20:39;3.20;;;1.40;;
56537;SDS011;42435;53.292;6.000;2023-07-31T12:23:12;3.70;;;1.58;;
56537;SDS011;42435;53.292;6.000;2023-07-31T12:25:59;7.18;;;1.67;;
56537;SDS011;42435;53.292;6.000;2023-07-31T12:28:29;7.47;;;1.98;;
56537;SDS011;42435;53.292;6.000;2023-07-31T12:30:59;5.45;;;2.20;;
56537;SDS011;42435;53.292;6.000;2023-07-31T12:33:30;8.48;;;2.80;;
56537;SDS011;42435;53.292;6.000;2023-07-31T12:35:59;6.43;;;2.85;;
56537;SDS011;42435;53.292;6.000;2023-07-31T12:38:27;8.15;;;2.55;;
56537;SDS011;42435;53.292;6.000;2023-07-31T12:40:52;4.57;;;2.00;;
56537;SDS011;42435;53.292;6.000;2023-07-31T12:43:18;7.18;;;2.78;;
56537;SDS011;42435;53.292;6.000;2023-07-31T12:45:43;4.00;;;2.05;;
56537;SDS011;42435;53.292;6.000;2023-07-31T12:48:09;8.52;;;2.78;;
56537;SDS011;42435;53.292;6.000;2023-07-31T12:50:34;4.78;;;2.10;;
56537;SDS011;42435;53.292;6.000;2023-07-31T12:53:01;5.25;;;2.35;;
56537;SDS011;42435;53.292;6.000;2023-07-31T12:55:28;6.25;;;2.10;;
56537;SDS011;42435;53.292;6.000;2023-07-31T12:57:55;6.72;;;2.45;;
56537;SDS011;42435;53.292;6.000;2023-07-31T13:00:21;6.13;;;2.22;;
56537;SDS011;42435;53.292;6.000;2023-07-31T13:02:47;10.65;;;3.10;;
56537;SDS011;42435;53.292;6.000;2023-07-31T13:05:12;6.57;;;2.90;;
56537;SDS011;42435;53.292;6.000;2023-07-31T13:07:38;8.30;;;2.50;;
56537;SDS011;42435;53.292;6.000;2023-07-31T13:10:04;8.75;;;2.67;;
56537;SDS011;42435;53.292;6.000;2023-07-31T13:12:31;5.70;;;2.33;;
56537;SDS011;42435;53.292;6.000;2023-07-31T13:14:56;9.65;;;2.70;;
56537;SDS011;42435;53.292;6.000;2023-07-31T13:17:22;6.85;;;2.30;;
56537;SDS011;42435;53.292;6.000;2023-07-31T13:19:48;9.68;;;2.60;;
56537;SDS011;42435;53.292;6.000;2023-07-31T13:22:13;7.70;;;2.63;;
56537;SDS011;42435;53.292;6.000;2023-07-31T13:24:39;8.73;;;2.50;;
56537;SDS011;42435;53.292;6.000;2023-07-31T13:27:04;6.78;;;2.22;;
56537;SDS011;42435;53.292;6.000;2023-07-31T13:29:30;8.82;;;2.65;;
56537;SDS011;42435;53.292;6.000;2023-07-31T13:31:57;9.27;;;2.67;;
56537;SDS011;42435;53.292;6.000;2023-07-31T13:34:22;7.45;;;2.72;;
56537;SDS011;42435;53.292;6.000;2023-07-31T13:36:48;7.10;;;2.53;;
56537;SDS011;42435;53.292;6.000;2023-07-31T13:39:13;8.88;;;2.72;;
56537;SDS011;42435;53.292;6.000;2023-07-31T13:41:39;9.60;;;3.30;;
56537;SDS011;42435;53.292;6.000;2023-07-31T13:44:05;9.20;;;3.03;;
56537;SDS011;42435;53.292;6.000;2023-07-31T13:46:30;6.75;;;2.72;;
56537;SDS011;42435;53.292;6.000;2023-07-31T13:48:57;6.07;;;2.60;;
56537;SDS011;42435;53.292;6.000;2023-07-31T13:51:24;5.32;;;2.50;;
56537;SDS011;42435;53.292;6.000;2023-07-31T13:53:50;6.47;;;2.33;;
56537;SDS011;42435;53.292;6.000;2023-07-31T13:56:16;9.45;;;3.05;;
56537;SDS011;42435;53.292;6.000;2023-07-31T13:58:41;8.23;;;2.78;;
56537;SDS011;42435;53.292;6.000;2023-07-31T14:01:07;7.88;;;2.67;;
56537;SDS011;42435;53.292;6.000;2023-07-31T14:03:32;7.72;;;2.40;;
56537;SDS011;42435;53.292;6.000;2023-07-31T14:05:58;5.40;;;2.53;;
56537;SDS011;42435;53.292;6.000;2023-07-31T14:08:24;13.15;;;3.47;;
56537;SDS011;42435;53.292;6.000;2023-07-31T14:10:49;5.95;;;2.72;;
56537;SDS011;42435;53.292;6.000;2023-07-31T14:13:17;8.95;;;3.38;;
56537;SDS011;42435;53.292;6.000;2023-07-31T14:15:43;6.97;;;3.47;;
56537;SDS011;42435;53.292;6.000;2023-07-31T14:18:09;9.13;;;3.33;;
56537;SDS011;42435;53.292;6.000;2023-07-31T14:20:34;8.98;;;3.80;;
56537;SDS011;42435;53.292;6.000;2023-07-31T14:23:00;7.47;;;2.90;;
56537;SDS011;42435;53.292;6.000;2023-07-31T14:25:27;10.18;;;2.90;;
56537;SDS011;42435;53.292;6.000;2023-07-31T14:27:52;9.43;;;3.13;;
56537;SDS011;42435;53.292;6.000;2023-07-31T14:30:18;8.65;;;3.15;;
56537;SDS011;42435;53.292;6.000;2023-07-31T14:32:44;8.85;;;3.45;;
56537;SDS011;42435;53.292;6.000;2023-07-31T14:35:09;12.88;;;3.83;;
56537;SDS011;42435;53.292;6.000;2023-07-31T14:37:38;9.68;;;3.88;;
56537;SDS011;42435;53.292;6.000;2023-07-31T14:40:05;13.57;;;3.70;;
56537;SDS011;42435;53.292;6.000;2023-07-31T14:42:32;11.35;;;3.65;;
56537;SDS011;42435;53.292;6.000;2023-07-31T14:44:57;13.73;;;3.90;;
56537;SDS011;42435;53.292;6.000;2023-07-31T14:47:23;11.27;;;3.47;;
56537;SDS011;42435;53.292;6.000;2023-07-31T14:49:48;9.88;;;3.70;;
56537;SDS011;42435;53.292;6.000;2023-07-31T14:52:17;10.48;;;3.50;;
56537;SDS011;42435;53.292;6.000;2023-07-31T14:54:43;12.25;;;3.90;;
56537;SDS011;42435;53.292;6.000;2023-07-31T14:57:08;10.05;;;3.30;;
56537;SDS011;42435;53.292;6.000;2023-07-31T14:59:34;7.95;;;2.88;;